McChord Air Force Base
KTCM : now visible

Airfield :











YOU CAN JOIN US ON...

 
LOGIN :

Register | Disclaimer

   EN    FR    IT 

 









Legend :    VFR   Marginal VFR   IFR   Intensive IFR   Very Intensive IFR
Visi :
Ceiling :
>= 8 km
>= 3000ft
5 to 8 km
1000 to 3000 ft
1500m to 5 km
500 to 1000 ft
800 to 1500m
200 to 500 ft
< 800m
< 200 ft
Symbols :   Thunderstorms  Fog  Heavy snow  Heavy precipitations  Wind > 20 kt






- Airport Elevation : 322 ft


KTCM - McChord Air Force Base

CURRENT METAR :
  • 071956Z AUTO 28006KT 10SM OVC021 08/03 A3027 RMK AO2 SLP256 T00820029 $

EXPIRED METARs :
  • 071858Z AUTO 31003KT 10SM OVC022 08/03 A3026 RMK AO2 SLP253 T00790026 $
  • 071758Z AUTO 22005KT 10SM OVC020 08/02 A3025 RMK AO2 SLP249 T00780023 10078 20000 52011 $

TAF TAF KTCM
Valid from the 07 at 13:00 until the 08 at 19:00 UTC


071300Z 0713/0819 15006KT 9999 SKC QNH3016INS
BECMG 0713/0714 21006KT 9999 BKN015 QNH3017INS
BECMG 0718/0719 01009KT 9999 SCT030 QNH3019INS
BECMG 0801/0802 04006KT 9999 SKC QNH3023INS TX13/0723Z TN01/0713Z



MET'MAP, your aeronautical weather chart ! - Copyright ORBIFLY December 2007 - Disclaimer

ORBIFLY MET'MAP TEAM :

Programming & Development : Alexandra Zaïnal
Concept & original design : Baudouin d'Aumeries
Assistance for programming : Marc-Olivier Méhu
Technical & hardware support : Manuel Goepfert

Contact : metmap@orbifly.com




SOURCES & CREDITS :

   NOAA       Earth
Advisory